sensor_id;sensor_type;location;lat;lon;timestamp;P1;durP1;ratioP1;P2;durP2;ratioP2
68872;SDS011;55907;50.806;12.882;2023-04-03T00:01:38;7.0;;;5.0;;
68872;SDS011;55907;50.806;12.882;2023-04-03T00:04:40;6.0;;;4.4;;
68872;SDS011;55907;50.806;12.882;2023-04-03T00:07:41;5.6;;;4.8;;
68872;SDS011;55907;50.806;12.882;2023-04-03T00:10:43;5.0;;;4.5;;
68872;SDS011;55907;50.806;12.882;2023-04-03T00:13:45;7.6;;;4.8;;
68872;SDS011;55907;50.806;12.882;2023-04-03T00:16:46;10.3;;;5.9;;
68872;SDS011;55907;50.806;12.882;2023-04-03T00:19:48;6.6;;;5.4;;
68872;SDS011;55907;50.806;12.882;2023-04-03T00:22:49;7.8;;;5.0;;
68872;SDS011;55907;50.806;12.882;2023-04-03T00:25:51;5.9;;;4.5;;
68872;SDS011;55907;50.806;12.882;2023-04-03T00:28:53;7.8;;;5.5;;
68872;SDS011;55907;50.806;12.882;2023-04-03T00:31:54;6.2;;;4.2;;
68872;SDS011;55907;50.806;12.882;2023-04-03T00:34:56;10.9;;;6.8;;
68872;SDS011;55907;50.806;12.882;2023-04-03T00:37:57;6.1;;;4.2;;
68872;SDS011;55907;50.806;12.882;2023-04-03T00:40:59;8.5;;;5.1;;
68872;SDS011;55907;50.806;12.882;2023-04-03T00:47:03;9.4;;;5.3;;
68872;SDS011;55907;50.806;12.882;2023-04-03T00:50:04;5.3;;;4.2;;
68872;SDS011;55907;50.806;12.882;2023-04-03T00:53:06;7.8;;;4.6;;
68872;SDS011;55907;50.806;12.882;2023-04-03T00:56:08;8.7;;;5.6;;
68872;SDS011;55907;50.806;12.882;2023-04-03T00:59:10;7.3;;;4.0;;
68872;SDS011;55907;50.806;12.882;2023-04-03T01:02:10;10.3;;;6.7;;
68872;SDS011;55907;50.806;12.882;2023-04-03T01:05:12;5.3;;;4.8;;
68872;SDS011;55907;50.806;12.882;2023-04-03T01:08:14;5.9;;;4.1;;
68872;SDS011;55907;50.806;12.882;2023-04-03T01:11:15;5.6;;;4.3;;
68872;SDS011;55907;50.806;12.882;2023-04-03T01:14:17;7.4;;;3.5;;
68872;SDS011;55907;50.806;12.882;2023-04-03T01:17:27;5.6;;;3.9;;
68872;SDS011;55907;50.806;12.882;2023-04-03T01:23:23;5.8;;;4.2;;
68872;SDS011;55907;50.806;12.882;2023-04-03T01:26:23;6.6;;;4.0;;
68872;SDS011;55907;50.806;12.882;2023-04-03T01:29:25;8.3;;;4.2;;
68872;SDS011;55907;50.806;12.882;2023-04-03T01:32:26;4.7;;;4.2;;
68872;SDS011;55907;50.806;12.882;2023-04-03T01:35:28;5.6;;;3.9;;
68872;SDS011;55907;50.806;12.882;2023-04-03T01:38:30;6.1;;;4.0;;
68872;SDS011;55907;50.806;12.882;2023-04-03T01:41:31;7.1;;;5.1;;
68872;SDS011;55907;50.806;12.882;2023-04-03T01:44:33;5.6;;;4.3;;
68872;SDS011;55907;50.806;12.882;2023-04-03T01:47:34;7.4;;;4.9;;
68872;SDS011;55907;50.806;12.882;2023-04-03T01:50:36;6.1;;;4.3;;
68872;SDS011;55907;50.806;12.882;2023-04-03T01:53:38;6.9;;;4.3;;
68872;SDS011;55907;50.806;12.882;2023-04-03T01:56:39;13.9;;;8.1;;
68872;SDS011;55907;50.806;12.882;2023-04-03T01:59:41;7.8;;;4.8;;
68872;SDS011;55907;50.806;12.882;2023-04-03T02:02:42;11.2;;;5.2;;
68872;SDS011;55907;50.806;12.882;2023-04-03T02:05:44;5.9;;;4.3;;
68872;SDS011;55907;50.806;12.882;2023-04-03T02:08:45;5.3;;;3.7;;
68872;SDS011;55907;50.806;12.882;2023-04-03T02:11:47;5.6;;;3.6;;
68872;SDS011;55907;50.806;12.882;2023-04-03T02:14:49;8.0;;;4.6;;
68872;SDS011;55907;50.806;12.882;2023-04-03T02:17:50;5.2;;;3.6;;
68872;SDS011;55907;50.806;12.882;2023-04-03T02:20:52;5.8;;;4.0;;
68872;SDS011;55907;50.806;12.882;2023-04-03T02:23:53;7.0;;;4.4;;
68872;SDS011;55907;50.806;12.882;2023-04-03T02:26:55;6.2;;;3.9;;
68872;SDS011;55907;50.806;12.882;2023-04-03T02:29:57;7.4;;;4.5;;
68872;SDS011;55907;50.806;12.882;2023-04-03T02:32:58;9.1;;;4.0;;
68872;SDS011;55907;50.806;12.882;2023-04-03T02:36:00;5.3;;;3.9;;
68872;SDS011;55907;50.806;12.882;2023-04-03T02:39:02;5.8;;;4.0;;
68872;SDS011;55907;50.806;12.882;2023-04-03T02:42:03;10.1;;;3.5;;
68872;SDS011;55907;50.806;12.882;2023-04-03T02:45:05;6.4;;;4.1;;
68872;SDS011;55907;50.806;12.882;2023-04-03T02:48:06;7.8;;;4.1;;
68872;SDS011;55907;50.806;12.882;2023-04-03T02:51:08;5.9;;;3.1;;
68872;SDS011;55907;50.806;12.882;2023-04-03T02:54:10;6.6;;;3.7;;
68872;SDS011;55907;50.806;12.882;2023-04-03T02:57:11;4.9;;;3.0;;
68872;SDS011;55907;50.806;12.882;2023-04-03T03:00:13;6.2;;;4.0;;
68872;SDS011;55907;50.806;12.882;2023-04-03T03:03:14;5.4;;;3.6;;
68872;SDS011;55907;50.806;12.882;2023-04-03T03:06:16;6.1;;;3.9;;
68872;SDS011;55907;50.806;12.882;2023-04-03T03:09:18;5.9;;;3.3;;
68872;SDS011;55907;50.806;12.882;2023-04-03T03:12:19;6.1;;;2.8;;
68872;SDS011;55907;50.806;12.882;2023-04-03T03:15:21;5.4;;;3.5;;
68872;SDS011;55907;50.806;12.882;2023-04-03T03:18:22;4.6;;;3.0;;
68872;SDS011;55907;50.806;12.882;2023-04-03T03:21:24;8.3;;;3.2;;
68872;SDS011;55907;50.806;12.882;2023-04-03T03:24:26;3.9;;;3.0;;
68872;SDS011;55907;50.806;12.882;2023-04-03T03:27:28;5.7;;;3.0;;
68872;SDS011;55907;50.806;12.882;2023-04-03T03:30:29;4.2;;;2.8;;
68872;SDS011;55907;50.806;12.882;2023-04-03T03:33:31;6.9;;;2.9;;
68872;SDS011;55907;50.806;12.882;2023-04-03T03:36:32;5.8;;;3.0;;
68872;SDS011;55907;50.806;12.882;2023-04-03T03:39:34;4.0;;;2.8;;
68872;SDS011;55907;50.806;12.882;2023-04-03T03:42:35;5.3;;;3.2;;
68872;SDS011;55907;50.806;12.882;2023-04-03T03:45:37;5.2;;;3.2;;
68872;SDS011;55907;50.806;12.882;2023-04-03T03:48:39;5.5;;;3.1;;
68872;SDS011;55907;50.806;12.882;2023-04-03T03:51:40;8.1;;;3.7;;
68872;SDS011;55907;50.806;12.882;2023-04-03T03:54:42;7.0;;;3.4;;
68872;SDS011;55907;50.806;12.882;2023-04-03T03:57:43;5.1;;;2.9;;
68872;SDS011;55907;50.806;12.882;2023-04-03T04:00:45;6.3;;;3.2;;
68872;SDS011;55907;50.806;12.882;2023-04-03T04:03:47;7.3;;;3.2;;
68872;SDS011;55907;50.806;12.882;2023-04-03T04:06:48;4.8;;;3.2;;
68872;SDS011;55907;50.806;12.882;2023-04-03T04:09:50;5.4;;;3.2;;
68872;SDS011;55907;50.806;12.882;2023-04-03T04:12:52;6.1;;;3.2;;
68872;SDS011;55907;50.806;12.882;2023-04-03T04:15:53;7.2;;;3.7;;
68872;SDS011;55907;50.806;12.882;2023-04-03T04:18:55;4.2;;;3.4;;
68872;SDS011;55907;50.806;12.882;2023-04-03T04:21:56;5.4;;;3.0;;
68872;SDS011;55907;50.806;12.882;2023-04-03T04:24:58;5.6;;;3.0;;
68872;SDS011;55907;50.806;12.882;2023-04-03T04:28:00;4.5;;;3.1;;
68872;SDS011;55907;50.806;12.882;2023-04-03T04:31:01;4.9;;;3.1;;
68872;SDS011;55907;50.806;12.882;2023-04-03T04:34:03;5.3;;;3.2;;
68872;SDS011;55907;50.806;12.882;2023-04-03T04:37:05;5.8;;;3.8;;
68872;SDS011;55907;50.806;12.882;2023-04-03T04:40:07;5.9;;;3.0;;
68872;SDS011;55907;50.806;12.882;2023-04-03T04:43:08;5.8;;;2.6;;
68872;SDS011;55907;50.806;12.882;2023-04-03T04:46:10;5.6;;;3.7;;
68872;SDS011;55907;50.806;12.882;2023-04-03T04:49:11;8.2;;;3.6;;
68872;SDS011;55907;50.806;12.882;2023-04-03T04:52:13;5.5;;;3.2;;
68872;SDS011;55907;50.806;12.882;2023-04-03T04:55:14;5.3;;;3.1;;
68872;SDS011;55907;50.806;12.882;2023-04-03T04:58:16;5.6;;;3.4;;
68872;SDS011;55907;50.806;12.882;2023-04-03T05:01:18;7.0;;;4.1;;
68872;SDS011;55907;50.806;12.882;2023-04-03T05:04:19;5.8;;;3.6;;
68872;SDS011;55907;50.806;12.882;2023-04-03T05:07:21;6.3;;;3.6;;
68872;SDS011;55907;50.806;12.882;2023-04-03T05:10:23;7.3;;;3.8;;
68872;SDS011;55907;50.806;12.882;2023-04-03T05:13:24;6.9;;;3.4;;
68872;SDS011;55907;50.806;12.882;2023-04-03T05:16:26;5.8;;;3.3;;
68872;SDS011;55907;50.806;12.882;2023-04-03T05:19:27;6.1;;;3.1;;
68872;SDS011;55907;50.806;12.882;2023-04-03T05:22:29;7.4;;;3.1;;
68872;SDS011;55907;50.806;12.882;2023-04-03T05:25:31;5.9;;;3.4;;
68872;SDS011;55907;50.806;12.882;2023-04-03T05:28:32;7.8;;;4.0;;
68872;SDS011;55907;50.806;12.882;2023-04-03T05:31:34;5.0;;;3.5;;
68872;SDS011;55907;50.806;12.882;2023-04-03T05:34:36;6.3;;;3.2;;
68872;SDS011;55907;50.806;12.882;2023-04-03T05:37:37;6.1;;;3.7;;
68872;SDS011;55907;50.806;12.882;2023-04-03T05:40:39;6.7;;;4.3;;
68872;SDS011;55907;50.806;12.882;2023-04-03T05:43:40;5.9;;;4.7;;
68872;SDS011;55907;50.806;12.882;2023-04-03T05:46:42;9.5;;;5.9;;
68872;SDS011;55907;50.806;12.882;2023-04-03T05:49:44;6.3;;;5.3;;
68872;SDS011;55907;50.806;12.882;2023-04-03T05:52:45;7.8;;;6.3;;
68872;SDS011;55907;50.806;12.882;2023-04-03T05:55:47;7.9;;;7.1;;
68872;SDS011;55907;50.806;12.882;2023-04-03T05:58:48;7.6;;;6.3;;
68872;SDS011;55907;50.806;12.882;2023-04-03T06:01:50;6.9;;;6.2;;
68872;SDS011;55907;50.806;12.882;2023-04-03T06:04:51;7.1;;;5.6;;
68872;SDS011;55907;50.806;12.882;2023-04-03T06:07:53;6.7;;;5.5;;
68872;SDS011;55907;50.806;12.882;2023-04-03T06:10:55;8.4;;;5.9;;
68872;SDS011;55907;50.806;12.882;2023-04-03T06:13:56;7.1;;;5.7;;
68872;SDS011;55907;50.806;12.882;2023-04-03T06:16:58;7.8;;;6.0;;
68872;SDS011;55907;50.806;12.882;2023-04-03T06:19:59;7.3;;;5.1;;
68872;SDS011;55907;50.806;12.882;2023-04-03T06:23:01;9.3;;;4.6;;
68872;SDS011;55907;50.806;12.882;2023-04-03T06:26:02;6.9;;;4.8;;
68872;SDS011;55907;50.806;12.882;2023-04-03T06:29:04;7.9;;;3.9;;
68872;SDS011;55907;50.806;12.882;2023-04-03T06:32:06;9.6;;;4.4;;
68872;SDS011;55907;50.806;12.882;2023-04-03T06:35:08;7.6;;;5.1;;
68872;SDS011;55907;50.806;12.882;2023-04-03T06:38:09;6.1;;;4.4;;
68872;SDS011;55907;50.806;12.882;2023-04-03T06:41:11;6.8;;;4.8;;
68872;SDS011;55907;50.806;12.882;2023-04-03T06:44:12;6.6;;;4.5;;
68872;SDS011;55907;50.806;12.882;2023-04-03T06:47:14;6.9;;;4.7;;
68872;SDS011;55907;50.806;12.882;2023-04-03T06:50:15;7.8;;;5.0;;
68872;SDS011;55907;50.806;12.882;2023-04-03T06:53:17;8.2;;;4.7;;
68872;SDS011;55907;50.806;12.882;2023-04-03T06:56:18;9.1;;;4.9;;
68872;SDS011;55907;50.806;12.882;2023-04-03T06:59:20;5.7;;;4.4;;
68872;SDS011;55907;50.806;12.882;2023-04-03T07:02:22;6.2;;;4.8;;
68872;SDS011;55907;50.806;12.882;2023-04-03T07:05:23;7.2;;;4.2;;
68872;SDS011;55907;50.806;12.882;2023-04-03T07:08:25;7.1;;;4.3;;
68872;SDS011;55907;50.806;12.882;2023-04-03T07:11:27;9.8;;;4.9;;
68872;SDS011;55907;50.806;12.882;2023-04-03T07:14:28;8.7;;;4.9;;
68872;SDS011;55907;50.806;12.882;2023-04-03T07:17:30;8.8;;;6.1;;
68872;SDS011;55907;50.806;12.882;2023-04-03T07:20:31;9.7;;;6.3;;
68872;SDS011;55907;50.806;12.882;2023-04-03T07:23:33;5.9;;;5.0;;
68872;SDS011;55907;50.806;12.882;2023-04-03T07:26:34;8.8;;;4.8;;
68872;SDS011;55907;50.806;12.882;2023-04-03T07:29:36;5.7;;;4.8;;
68872;SDS011;55907;50.806;12.882;2023-04-03T07:32:38;6.5;;;5.8;;
68872;SDS011;55907;50.806;12.882;2023-04-03T07:35:40;8.8;;;5.5;;
68872;SDS011;55907;50.806;12.882;2023-04-03T07:38:41;6.2;;;5.4;;
68872;SDS011;55907;50.806;12.882;2023-04-03T07:41:42;7.9;;;6.4;;
68872;SDS011;55907;50.806;12.882;2023-04-03T07:44:44;7.4;;;6.7;;
68872;SDS011;55907;50.806;12.882;2023-04-03T07:47:46;7.5;;;6.8;;
68872;SDS011;55907;50.806;12.882;2023-04-03T07:50:47;8.4;;;6.5;;
68872;SDS011;55907;50.806;12.882;2023-04-03T07:56:50;11.2;;;8.6;;
68872;SDS011;55907;50.806;12.882;2023-04-03T07:59:52;9.5;;;8.2;;
68872;SDS011;55907;50.806;12.882;2023-04-03T08:02:54;11.6;;;8.8;;
68872;SDS011;55907;50.806;12.882;2023-04-03T08:06:00;8.2;;;7.3;;
68872;SDS011;55907;50.806;12.882;2023-04-03T08:08:57;7.5;;;6.7;;
68872;SDS011;55907;50.806;12.882;2023-04-03T08:11:58;7.9;;;7.1;;
68872;SDS011;55907;50.806;12.882;2023-04-03T08:15:00;8.5;;;6.7;;
68872;SDS011;55907;50.806;12.882;2023-04-03T08:18:02;8.0;;;6.8;;
68872;SDS011;55907;50.806;12.882;2023-04-03T08:21:05;9.3;;;6.9;;
68872;SDS011;55907;50.806;12.882;2023-04-03T08:24:05;8.2;;;7.1;;
68872;SDS011;55907;50.806;12.882;2023-04-03T08:27:06;9.2;;;7.0;;
68872;SDS011;55907;50.806;12.882;2023-04-03T08:30:08;7.8;;;7.1;;
68872;SDS011;55907;50.806;12.882;2023-04-03T08:33:09;8.0;;;7.2;;
68872;SDS011;55907;50.806;12.882;2023-04-03T08:36:19;8.4;;;7.5;;
68872;SDS011;55907;50.806;12.882;2023-04-03T08:39:12;8.0;;;7.2;;
68872;SDS011;55907;50.806;12.882;2023-04-03T08:42:15;7.4;;;6.7;;
68872;SDS011;55907;50.806;12.882;2023-04-03T08:45:16;7.2;;;6.5;;
68872;SDS011;55907;50.806;12.882;2023-04-03T08:48:19;7.5;;;6.7;;
68872;SDS011;55907;50.806;12.882;2023-04-03T08:51:19;7.4;;;6.7;;
68872;SDS011;55907;50.806;12.882;2023-04-03T08:54:24;7.3;;;6.7;;
68872;SDS011;55907;50.806;12.882;2023-04-03T08:57:26;7.7;;;6.3;;
68872;SDS011;55907;50.806;12.882;2023-04-03T09:00:23;6.8;;;5.6;;
68872;SDS011;55907;50.806;12.882;2023-04-03T09:03:25;3.6;;;1.6;;
68872;SDS011;55907;50.806;12.882;2023-04-03T09:06:27;3.1;;;1.5;;
68872;SDS011;55907;50.806;12.882;2023-04-03T09:09:30;3.2;;;1.5;;
68872;SDS011;55907;50.806;12.882;2023-04-03T09:12:32;4.0;;;1.3;;
68872;SDS011;55907;50.806;12.882;2023-04-03T09:15:31;5.4;;;1.7;;
68872;SDS011;55907;50.806;12.882;2023-04-03T09:18:34;5.5;;;1.7;;
68872;SDS011;55907;50.806;12.882;2023-04-03T09:21:34;6.1;;;1.6;;
68872;SDS011;55907;50.806;12.882;2023-04-03T09:24:35;3.3;;;1.4;;
68872;SDS011;55907;50.806;12.882;2023-04-03T09:27:37;5.7;;;3.1;;
68872;SDS011;55907;50.806;12.882;2023-04-03T09:30:38;7.1;;;5.9;;
68872;SDS011;55907;50.806;12.882;2023-04-03T09:33:40;6.7;;;6.1;;
68872;SDS011;55907;50.806;12.882;2023-04-03T09:36:42;7.9;;;6.8;;
68872;SDS011;55907;50.806;12.882;2023-04-03T09:39:49;7.2;;;6.5;;
68872;SDS011;55907;50.806;12.882;2023-04-03T09:42:45;8.1;;;6.8;;
68872;SDS011;55907;50.806;12.882;2023-04-03T09:45:47;7.0;;;6.3;;
68872;SDS011;55907;50.806;12.882;2023-04-03T09:48:52;7.4;;;6.8;;
68872;SDS011;55907;50.806;12.882;2023-04-03T09:51:49;9.3;;;7.5;;
68872;SDS011;55907;50.806;12.882;2023-04-03T09:54:51;6.8;;;6.1;;
68872;SDS011;55907;50.806;12.882;2023-04-03T09:57:52;6.4;;;5.2;;
68872;SDS011;55907;50.806;12.882;2023-04-03T10:00:55;3.4;;;1.2;;
68872;SDS011;55907;50.806;12.882;2023-04-03T10:04:04;4.1;;;1.1;;
68872;SDS011;55907;50.806;12.882;2023-04-03T10:06:57;6.6;;;1.2;;
68872;SDS011;55907;50.806;12.882;2023-04-03T10:09:59;4.5;;;1.2;;
68872;SDS011;55907;50.806;12.882;2023-04-03T10:13:04;3.3;;;1.3;;
68872;SDS011;55907;50.806;12.882;2023-04-03T10:16:03;3.1;;;1.1;;
68872;SDS011;55907;50.806;12.882;2023-04-03T10:19:06;2.9;;;1.1;;
68872;SDS011;55907;50.806;12.882;2023-04-03T10:22:06;4.1;;;1.3;;
68872;SDS011;55907;50.806;12.882;2023-04-03T10:25:09;3.9;;;1.3;;
68872;SDS011;55907;50.806;12.882;2023-04-03T10:28:08;4.0;;;1.1;;
68872;SDS011;55907;50.806;12.882;2023-04-03T10:31:10;2.8;;;1.3;;
68872;SDS011;55907;50.806;12.882;2023-04-03T10:34:12;4.2;;;1.7;;
68872;SDS011;55907;50.806;12.882;2023-04-03T10:37:13;5.4;;;3.2;;
68872;SDS011;55907;50.806;12.882;2023-04-03T10:40:20;5.2;;;4.7;;
68872;SDS011;55907;50.806;12.882;2023-04-03T10:43:17;5.6;;;5.1;;
68872;SDS011;55907;50.806;12.882;2023-04-03T10:46:18;6.7;;;6.0;;
68872;SDS011;55907;50.806;12.882;2023-04-03T10:49:21;6.4;;;5.8;;
68872;SDS011;55907;50.806;12.882;2023-04-03T10:52:20;6.5;;;5.9;;
68872;SDS011;55907;50.806;12.882;2023-04-03T10:55:24;6.4;;;5.8;;
68872;SDS011;55907;50.806;12.882;2023-04-03T10:58:25;6.3;;;5.7;;
68872;SDS011;55907;50.806;12.882;2023-04-03T11:01:27;5.9;;;5.4;;
68872;SDS011;55907;50.806;12.882;2023-04-03T11:04:27;6.6;;;6.0;;
68872;SDS011;55907;50.806;12.882;2023-04-03T11:07:28;6.9;;;6.2;;
68872;SDS011;55907;50.806;12.882;2023-04-03T11:10:31;6.7;;;5.9;;
68872;SDS011;55907;50.806;12.882;2023-04-03T11:13:32;6.3;;;5.6;;
68872;SDS011;55907;50.806;12.882;2023-04-03T11:16:33;5.7;;;5.1;;
68872;SDS011;55907;50.806;12.882;2023-04-03T11:19:35;9.0;;;7.1;;
68872;SDS011;55907;50.806;12.882;2023-04-03T11:22:36;6.6;;;5.9;;
68872;SDS011;55907;50.806;12.882;2023-04-03T11:25:37;6.5;;;5.7;;
68872;SDS011;55907;50.806;12.882;2023-04-03T11:28:38;6.1;;;5.6;;
68872;SDS011;55907;50.806;12.882;2023-04-03T11:31:42;6.3;;;5.1;;
68872;SDS011;55907;50.806;12.882;2023-04-03T11:34:41;6.9;;;6.1;;
68872;SDS011;55907;50.806;12.882;2023-04-03T11:37:44;5.8;;;5.3;;
68872;SDS011;55907;50.806;12.882;2023-04-03T11:40:44;5.5;;;5.0;;
68872;SDS011;55907;50.806;12.882;2023-04-03T11:43:55;6.2;;;5.6;;
68872;SDS011;55907;50.806;12.882;2023-04-03T11:46:49;6.4;;;5.7;;
68872;SDS011;55907;50.806;12.882;2023-04-03T11:49:50;6.3;;;5.7;;
68872;SDS011;55907;50.806;12.882;2023-04-03T11:52:55;6.2;;;5.7;;
68872;SDS011;55907;50.806;12.882;2023-04-03T11:55:53;7.0;;;6.1;;
68872;SDS011;55907;50.806;12.882;2023-04-03T12:01:55;6.0;;;5.5;;
68872;SDS011;55907;50.806;12.882;2023-04-03T12:14:02;5.9;;;5.4;;
68872;SDS011;55907;50.806;12.882;2023-04-03T12:17:12;6.3;;;5.7;;
68872;SDS011;55907;50.806;12.882;2023-04-03T12:23:07;6.6;;;5.4;;
68872;SDS011;55907;50.806;12.882;2023-04-03T12:29:12;8.7;;;7.8;;
68872;SDS011;55907;50.806;12.882;2023-04-03T12:32:12;6.2;;;5.7;;
68872;SDS011;55907;50.806;12.882;2023-04-03T12:35:18;6.1;;;5.6;;
68872;SDS011;55907;50.806;12.882;2023-04-03T12:44:26;6.0;;;5.5;;
68872;SDS011;55907;50.806;12.882;2023-04-03T12:50:21;6.6;;;6.0;;
68872;SDS011;55907;50.806;12.882;2023-04-03T12:53:22;6.1;;;5.6;;
68872;SDS011;55907;50.806;12.882;2023-04-03T12:56:24;6.3;;;5.7;;
68872;SDS011;55907;50.806;12.882;2023-04-03T12:59:25;6.2;;;5.3;;
68872;SDS011;55907;50.806;12.882;2023-04-03T13:02:27;6.5;;;5.4;;
68872;SDS011;55907;50.806;12.882;2023-04-03T13:05:27;6.1;;;5.5;;
68872;SDS011;55907;50.806;12.882;2023-04-03T13:08:29;5.6;;;5.1;;
68872;SDS011;55907;50.806;12.882;2023-04-03T13:11:32;6.9;;;6.2;;
68872;SDS011;55907;50.806;12.882;2023-04-03T13:14:32;6.4;;;5.8;;
68872;SDS011;55907;50.806;12.882;2023-04-03T13:17:33;6.9;;;5.4;;
68872;SDS011;55907;50.806;12.882;2023-04-03T13:20:35;6.6;;;6.1;;
68872;SDS011;55907;50.806;12.882;2023-04-03T13:23:38;6.7;;;6.0;;
68872;SDS011;55907;50.806;12.882;2023-04-03T13:26:38;5.8;;;5.2;;
68872;SDS011;55907;50.806;12.882;2023-04-03T13:29:40;7.9;;;7.1;;
68872;SDS011;55907;50.806;12.882;2023-04-03T13:32:41;7.8;;;6.6;;
68872;SDS011;55907;50.806;12.882;2023-04-03T13:35:43;6.0;;;5.5;;
68872;SDS011;55907;50.806;12.882;2023-04-03T13:41:47;5.9;;;5.4;;
68872;SDS011;55907;50.806;12.882;2023-04-03T13:44:47;6.0;;;5.4;;
68872;SDS011;55907;50.806;12.882;2023-04-03T13:47:49;5.9;;;5.3;;
68872;SDS011;55907;50.806;12.882;2023-04-03T13:50:52;6.2;;;5.6;;
68872;SDS011;55907;50.806;12.882;2023-04-03T13:53:53;6.1;;;5.6;;
68872;SDS011;55907;50.806;12.882;2023-04-03T13:59:55;6.4;;;5.8;;
68872;SDS011;55907;50.806;12.882;2023-04-03T14:02:57;6.1;;;5.5;;
68872;SDS011;55907;50.806;12.882;2023-04-03T14:05:58;5.3;;;4.9;;
68872;SDS011;55907;50.806;12.882;2023-04-03T14:09:00;6.2;;;5.6;;
68872;SDS011;55907;50.806;12.882;2023-04-03T14:12:04;5.7;;;5.2;;
68872;SDS011;55907;50.806;12.882;2023-04-03T14:15:06;6.2;;;4.9;;
68872;SDS011;55907;50.806;12.882;2023-04-03T14:18:04;6.1;;;5.5;;
68872;SDS011;55907;50.806;12.882;2023-04-03T14:21:06;6.4;;;5.8;;
68872;SDS011;55907;50.806;12.882;2023-04-03T14:24:07;5.8;;;5.2;;
68872;SDS011;55907;50.806;12.882;2023-04-03T14:27:11;6.5;;;4.9;;
68872;SDS011;55907;50.806;12.882;2023-04-03T14:30:12;6.1;;;5.6;;
68872;SDS011;55907;50.806;12.882;2023-04-03T14:33:12;5.7;;;5.2;;
68872;SDS011;55907;50.806;12.882;2023-04-03T14:36:14;6.6;;;6.0;;
68872;SDS011;55907;50.806;12.882;2023-04-03T14:39:16;6.7;;;6.1;;
68872;SDS011;55907;50.806;12.882;2023-04-03T14:42:18;6.1;;;5.5;;
68872;SDS011;55907;50.806;12.882;2023-04-03T14:51:21;7.1;;;5.7;;
68872;SDS011;55907;50.806;12.882;2023-04-03T14:54:23;6.7;;;6.0;;
68872;SDS011;55907;50.806;12.882;2023-04-03T14:57:25;8.0;;;6.3;;
68872;SDS011;55907;50.806;12.882;2023-04-03T15:00:26;6.7;;;6.1;;
68872;SDS011;55907;50.806;12.882;2023-04-03T15:03:27;7.5;;;5.6;;
68872;SDS011;55907;50.806;12.882;2023-04-03T15:09:30;7.2;;;6.6;;
68872;SDS011;55907;50.806;12.882;2023-04-03T15:12:32;5.4;;;4.9;;
68872;SDS011;55907;50.806;12.882;2023-04-03T15:15:34;6.6;;;6.0;;
68872;SDS011;55907;50.806;12.882;2023-04-03T15:18:36;7.7;;;6.8;;
68872;SDS011;55907;50.806;12.882;2023-04-03T15:21:37;6.9;;;6.2;;
68872;SDS011;55907;50.806;12.882;2023-04-03T15:24:38;8.1;;;5.8;;
68872;SDS011;55907;50.806;12.882;2023-04-03T15:27:40;6.9;;;6.2;;
68872;SDS011;55907;50.806;12.882;2023-04-03T15:30:41;6.2;;;5.7;;
68872;SDS011;55907;50.806;12.882;2023-04-03T15:33:43;8.3;;;6.0;;
68872;SDS011;55907;50.806;12.882;2023-04-03T15:36:44;8.1;;;6.3;;
68872;SDS011;55907;50.806;12.882;2023-04-03T15:39:46;6.0;;;5.5;;
68872;SDS011;55907;50.806;12.882;2023-04-03T15:42:48;6.4;;;5.8;;
68872;SDS011;55907;50.806;12.882;2023-04-03T15:45:49;6.9;;;5.9;;
68872;SDS011;55907;50.806;12.882;2023-04-03T15:48:51;6.1;;;5.5;;
68872;SDS011;55907;50.806;12.882;2023-04-03T15:54:54;5.7;;;5.2;;
68872;SDS011;55907;50.806;12.882;2023-04-03T15:57:55;6.6;;;5.6;;
68872;SDS011;55907;50.806;12.882;2023-04-03T16:00:57;5.9;;;5.0;;
68872;SDS011;55907;50.806;12.882;2023-04-03T16:03:59;5.3;;;4.8;;
68872;SDS011;55907;50.806;12.882;2023-04-03T16:07:00;6.2;;;5.6;;
68872;SDS011;55907;50.806;12.882;2023-04-03T16:10:02;5.4;;;4.9;;
68872;SDS011;55907;50.806;12.882;2023-04-03T16:13:04;6.3;;;5.5;;
68872;SDS011;55907;50.806;12.882;2023-04-03T16:16:05;6.5;;;5.9;;
68872;SDS011;55907;50.806;12.882;2023-04-03T16:19:06;6.2;;;5.6;;
68872;SDS011;55907;50.806;12.882;2023-04-03T16:22:08;7.3;;;5.9;;
68872;SDS011;55907;50.806;12.882;2023-04-03T16:25:10;5.7;;;5.2;;
68872;SDS011;55907;50.806;12.882;2023-04-03T16:28:11;7.3;;;5.4;;
68872;SDS011;55907;50.806;12.882;2023-04-03T16:31:13;5.9;;;5.3;;
68872;SDS011;55907;50.806;12.882;2023-04-03T16:43:19;5.0;;;4.6;;
68872;SDS011;55907;50.806;12.882;2023-04-03T16:46:21;5.8;;;4.9;;
68872;SDS011;55907;50.806;12.882;2023-04-03T16:49:22;5.6;;;5.0;;
68872;SDS011;55907;50.806;12.882;2023-04-03T16:52:24;5.2;;;4.7;;
68872;SDS011;55907;50.806;12.882;2023-04-03T16:55:25;5.9;;;5.4;;
68872;SDS011;55907;50.806;12.882;2023-04-03T16:58:27;5.5;;;4.8;;
68872;SDS011;55907;50.806;12.882;2023-04-03T17:01:29;5.6;;;5.1;;
68872;SDS011;55907;50.806;12.882;2023-04-03T17:04:30;6.8;;;5.5;;
68872;SDS011;55907;50.806;12.882;2023-04-03T17:07:32;5.3;;;4.6;;
68872;SDS011;55907;50.806;12.882;2023-04-03T17:10:33;6.0;;;4.8;;
68872;SDS011;55907;50.806;12.882;2023-04-03T17:13:35;5.5;;;5.1;;
68872;SDS011;55907;50.806;12.882;2023-04-03T17:16:37;5.3;;;4.9;;
68872;SDS011;55907;50.806;12.882;2023-04-03T17:19:38;6.6;;;6.0;;
68872;SDS011;55907;50.806;12.882;2023-04-03T17:22:40;6.9;;;6.2;;
68872;SDS011;55907;50.806;12.882;2023-04-03T17:25:41;5.5;;;5.0;;
68872;SDS011;55907;50.806;12.882;2023-04-03T17:28:43;5.9;;;5.4;;
68872;SDS011;55907;50.806;12.882;2023-04-03T17:31:44;5.4;;;4.9;;
68872;SDS011;55907;50.806;12.882;2023-04-03T17:34:46;5.5;;;5.0;;
68872;SDS011;55907;50.806;12.882;2023-04-03T17:37:48;5.4;;;4.9;;
68872;SDS011;55907;50.806;12.882;2023-04-03T17:40:49;4.8;;;4.4;;
68872;SDS011;55907;50.806;12.882;2023-04-03T17:43:51;5.2;;;4.7;;
68872;SDS011;55907;50.806;12.882;2023-04-03T17:46:52;6.0;;;4.4;;
68872;SDS011;55907;50.806;12.882;2023-04-03T17:49:54;4.8;;;4.4;;
68872;SDS011;55907;50.806;12.882;2023-04-03T17:52:56;5.2;;;4.8;;
68872;SDS011;55907;50.806;12.882;2023-04-03T17:55:57;6.7;;;5.5;;
68872;SDS011;55907;50.806;12.882;2023-04-03T17:58:59;5.3;;;4.9;;
68872;SDS011;55907;50.806;12.882;2023-04-03T18:02:00;5.2;;;4.8;;
68872;SDS011;55907;50.806;12.882;2023-04-03T18:05:02;5.6;;;5.1;;
68872;SDS011;55907;50.806;12.882;2023-04-03T18:08:04;6.0;;;4.8;;
68872;SDS011;55907;50.806;12.882;2023-04-03T18:11:05;5.1;;;4.6;;
68872;SDS011;55907;50.806;12.882;2023-04-03T18:14:07;5.0;;;4.6;;
68872;SDS011;55907;50.806;12.882;2023-04-03T18:17:08;5.2;;;4.7;;
68872;SDS011;55907;50.806;12.882;2023-04-03T18:20:11;5.9;;;5.1;;
68872;SDS011;55907;50.806;12.882;2023-04-03T18:23:11;5.4;;;4.9;;
68872;SDS011;55907;50.806;12.882;2023-04-03T18:26:14;6.0;;;5.4;;
68872;SDS011;55907;50.806;12.882;2023-04-03T18:29:15;5.2;;;4.8;;
68872;SDS011;55907;50.806;12.882;2023-04-03T18:32:17;4.6;;;4.3;;
68872;SDS011;55907;50.806;12.882;2023-04-03T18:35:18;5.3;;;4.7;;
68872;SDS011;55907;50.806;12.882;2023-04-03T18:38:20;5.2;;;4.8;;
68872;SDS011;55907;50.806;12.882;2023-04-03T18:41:21;5.0;;;4.6;;
68872;SDS011;55907;50.806;12.882;2023-04-03T18:44:23;4.8;;;4.3;;
68872;SDS011;55907;50.806;12.882;2023-04-03T18:47:25;5.2;;;4.8;;
68872;SDS011;55907;50.806;12.882;2023-04-03T18:50:26;6.0;;;4.4;;
68872;SDS011;55907;50.806;12.882;2023-04-03T18:53:27;4.4;;;4.0;;
68872;SDS011;55907;50.806;12.882;2023-04-03T18:56:29;5.4;;;4.8;;
68872;SDS011;55907;50.806;12.882;2023-04-03T18:59:31;5.3;;;4.9;;
68872;SDS011;55907;50.806;12.882;2023-04-03T19:02:32;5.0;;;4.4;;
68872;SDS011;55907;50.806;12.882;2023-04-03T19:08:36;4.7;;;4.4;;
68872;SDS011;55907;50.806;12.882;2023-04-03T19:11:37;4.8;;;4.4;;
68872;SDS011;55907;50.806;12.882;2023-04-03T19:14:39;5.1;;;4.6;;
68872;SDS011;55907;50.806;12.882;2023-04-03T19:17:40;5.4;;;4.6;;
68872;SDS011;55907;50.806;12.882;2023-04-03T19:20:42;4.8;;;4.4;;
68872;SDS011;55907;50.806;12.882;2023-04-03T19:23:43;4.6;;;4.2;;
68872;SDS011;55907;50.806;12.882;2023-04-03T19:26:45;5.0;;;4.4;;
68872;SDS011;55907;50.806;12.882;2023-04-03T19:29:47;5.4;;;4.8;;
68872;SDS011;55907;50.806;12.882;2023-04-03T19:32:48;6.5;;;5.4;;
68872;SDS011;55907;50.806;12.882;2023-04-03T19:35:50;5.1;;;4.6;;